createdAt,value
2024-05-09T00:04:22.522Z,101002.84
2024-05-09T00:09:24.086Z,101003.63
2024-05-09T00:14:25.771Z,101007.16
2024-05-09T00:19:27.640Z,100998.22
2024-05-09T00:24:29.247Z,100998.25
2024-05-09T00:29:30.967Z,101010.78
2024-05-09T00:34:32.631Z,101010.22
2024-05-09T00:39:34.281Z,101001.41
2024-05-09T00:44:35.856Z,101014.31
2024-05-09T00:49:37.671Z,100995.03
2024-05-09T00:54:39.363Z,100992.53
2024-05-09T00:59:40.948Z,100998.28
2024-05-09T01:04:42.585Z,100988.34
2024-05-09T01:09:44.235Z,100992.75
2024-05-09T01:14:45.836Z,100994.94
2024-05-09T01:19:47.724Z,100992.56
2024-05-09T01:24:49.658Z,100995.50
2024-05-09T01:29:51.233Z,101005.00
2024-05-09T01:34:52.786Z,100996.34
2024-05-09T01:39:54.478Z,101003.25
2024-05-09T01:44:56.033Z,101007.13
2024-05-09T01:49:57.697Z,101016.09
2024-05-09T01:55:00.759Z,101015.09
2024-05-09T02:00:07.738Z,101016.13
2024-05-09T02:05:09.853Z,101010.88
2024-05-09T02:10:20.008Z,101003.94
2024-05-09T02:15:24.851Z,101005.16
2024-05-09T02:20:33.866Z,101025.19
2024-05-09T02:25:38.072Z,101022.41
2024-05-09T02:30:41.703Z,101027.72
2024-05-09T02:35:44.510Z,101027.47
2024-05-09T02:40:46.307Z,101023.28
2024-05-09T02:45:47.875Z,101016.84
2024-05-09T02:50:49.466Z,101017.94
2024-05-09T02:55:51.124Z,101015.03
2024-05-09T03:00:52.789Z,101020.72
2024-05-09T03:05:54.385Z,101014.19
2024-05-09T03:10:56.020Z,101028.47
2024-05-09T03:15:59.664Z,101019.59
2024-05-09T03:21:01.276Z,101013.91
2024-05-09T03:26:02.872Z,101019.59
2024-05-09T03:31:04.589Z,101015.81
2024-05-09T03:36:09.103Z,101023.13
2024-05-09T03:41:12.713Z,101016.69
2024-05-09T03:46:14.267Z,101016.03
2024-05-09T03:51:15.842Z,101020.22
2024-05-09T03:56:17.434Z,101019.59
2024-05-09T04:01:19.102Z,101025.63
2024-05-09T04:06:24.689Z,101022.16
2024-05-09T04:11:26.358Z,101031.63
2024-05-09T04:16:28.263Z,101029.28
2024-05-09T04:21:29.816Z,101029.16
2024-05-09T04:26:31.436Z,101029.31
2024-05-09T04:31:36.224Z,101033.53
2024-05-09T04:36:39.646Z,101039.19
2024-05-09T04:41:42.541Z,101033.59
2024-05-09T04:46:44.175Z,101048.22
2024-05-09T04:51:45.805Z,101054.16
2024-05-09T04:56:47.380Z,101060.81
2024-05-09T05:01:49.079Z,101054.25
2024-05-09T05:06:50.671Z,101058.41
2024-05-09T05:11:52.405Z,101054.53
2024-05-09T05:16:54.101Z,101058.31
2024-05-09T05:21:55.660Z,101055.59
2024-05-09T05:26:57.220Z,101058.44
2024-05-09T05:31:58.941Z,101058.31
2024-05-09T05:37:00.558Z,101051.66
2024-05-09T05:42:02.151Z,101045.41
2024-05-09T05:47:03.778Z,101057.06
2024-05-09T05:52:05.466Z,101053.25
2024-05-09T05:57:07.043Z,101056.78
2024-05-09T06:02:09.589Z,101048.63
2024-05-09T06:07:11.233Z,101061.13
2024-05-09T06:12:12.983Z,101064.19
2024-05-09T06:17:14.718Z,101066.28
2024-05-09T06:22:16.320Z,101069.50
2024-05-09T06:27:17.870Z,101065.88
2024-05-09T06:32:19.745Z,101059.41
2024-05-09T06:37:21.542Z,101064.88
2024-05-09T06:42:23.101Z,101063.00
2024-05-09T06:47:24.886Z,101062.47
2024-05-09T06:52:26.536Z,101063.59
2024-05-09T06:57:30.787Z,101064.03
2024-05-09T07:02:32.589Z,101054.50
2024-05-09T07:07:34.252Z,101055.72
2024-05-09T07:12:35.824Z,101058.56
2024-05-09T07:17:38.004Z,101055.66
2024-05-09T07:22:39.668Z,101058.72
2024-05-09T07:27:41.212Z,101062.47
2024-05-09T07:32:44.907Z,101056.97
2024-05-09T07:37:46.764Z,101065.31
2024-05-09T07:42:48.307Z,101058.81
2024-05-09T07:49:13.658Z,101049.31
2024-05-09T07:53:37.147Z,101049.50
2024-05-09T07:58:32.913Z,101043.31
2024-05-09T08:03:34.715Z,101036.75
2024-05-09T08:08:36.500Z,101037.97
2024-05-09T08:13:38.058Z,101037.28
2024-05-09T08:18:40.005Z,101035.41
2024-05-09T08:23:41.724Z,101029.47
2024-05-09T08:28:43.278Z,101044.84
2024-05-09T08:33:50.509Z,101042.31
2024-05-09T08:38:52.175Z,101034.34
2024-05-09T08:43:53.873Z,101036.91
2024-05-09T08:48:55.659Z,101023.00
2024-05-09T08:53:57.329Z,101031.38
2024-05-09T08:59:00.300Z,101019.53
2024-05-09T09:04:02.339Z,101016.03
2024-05-09T09:09:04.040Z,101015.41
2024-05-09T09:14:05.589Z,101012.06
2024-05-09T09:19:07.423Z,101018.66
2024-05-09T09:24:10.036Z,101016.09
2024-05-09T09:29:11.673Z,101012.91
2024-05-09T09:34:13.344Z,101016.25
2024-05-09T09:39:15.057Z,101019.81
2024-05-09T09:44:16.612Z,101021.72
2024-05-09T09:49:18.259Z,101019.44
2024-05-09T09:54:20.192Z,101018.97
2024-05-09T09:59:21.762Z,101018.22
2024-05-09T10:04:23.397Z,101012.66
2024-05-09T10:09:25.078Z,101018.38
2024-05-09T10:14:26.630Z,101020.94
2024-05-09T10:19:28.495Z,101011.00
2024-05-09T10:24:48.816Z,101010.34
2024-05-09T10:29:58.017Z,101008.47
2024-05-09T10:35:11.708Z,101002.84
2024-05-09T10:40:23.420Z,100990.59
2024-05-09T10:45:30.612Z,100987.22
2024-05-09T10:50:34.386Z,100991.47
2024-05-09T10:55:36.320Z,100989.50
2024-05-09T11:00:38.031Z,100984.25
2024-05-09T11:05:42.009Z,100981.97
2024-05-09T11:10:43.733Z,100971.88
2024-05-09T11:15:45.355Z,100964.97
2024-05-09T11:20:47.553Z,100967.69
2024-05-09T11:25:49.901Z,100961.59
2024-05-09T11:30:51.577Z,100954.16
2024-05-09T11:35:53.146Z,100950.84
2024-05-09T11:40:54.812Z,100951.03
2024-05-09T11:45:57.086Z,100948.25
2024-05-09T11:50:58.687Z,100945.63
2024-05-09T11:56:00.232Z,100948.16
2024-05-09T12:01:02.113Z,100937.38
2024-05-09T12:06:04.118Z,100939.06
2024-05-09T12:11:06.098Z,100927.72
2024-05-09T12:16:07.927Z,100929.56
2024-05-09T12:21:09.642Z,100922.41
2024-05-09T12:26:11.195Z,100930.00
2024-05-09T12:31:12.834Z,100918.22
2024-05-09T12:36:14.421Z,100910.16
2024-05-09T12:41:15.978Z,100897.19
2024-05-09T12:46:20.325Z,100886.47
2024-05-09T12:51:21.912Z,100890.03
2024-05-09T12:56:23.452Z,100876.75
2024-05-09T13:01:25.129Z,100879.72
2024-05-09T13:06:26.768Z,100868.97
2024-05-09T13:11:28.346Z,100861.88
2024-05-09T13:16:30.079Z,100856.16
2024-05-09T13:21:31.668Z,100850.91
2024-05-09T13:26:33.313Z,100850.91
2024-05-09T13:31:34.894Z,100843.97
2024-05-09T13:36:36.510Z,100837.06
2024-05-09T13:41:38.085Z,100827.34
2024-05-09T13:46:39.642Z,100832.81
2024-05-09T13:51:41.322Z,100832.00
2024-05-09T13:56:42.931Z,100836.84
2024-05-09T14:01:44.686Z,100817.31
2024-05-09T14:06:46.352Z,100815.38
2024-05-09T14:11:47.970Z,100819.00
2024-05-09T14:16:49.679Z,100819.28
2024-05-09T14:21:51.313Z,100809.59
2024-05-09T14:26:52.905Z,100807.38
2024-05-09T14:31:54.462Z,100795.13
2024-05-09T14:36:56.082Z,100786.53
2024-05-09T14:41:57.627Z,100793.16
2024-05-09T14:46:59.668Z,100783.06
2024-05-09T14:52:01.328Z,100758.97
2024-05-09T14:57:02.915Z,100764.47
2024-05-09T15:02:04.606Z,100758.41
2024-05-09T15:07:07.597Z,100759.25
2024-05-09T15:12:09.838Z,100758.72
2024-05-09T15:17:11.388Z,100746.16
2024-05-09T15:22:16.230Z,100755.78
2024-05-09T15:27:18.063Z,100748.31
2024-05-09T15:32:19.632Z,100745.75
2024-05-09T15:37:21.495Z,100727.28
2024-05-09T15:42:23.063Z,100745.34
2024-05-09T15:47:24.647Z,100729.00
2024-05-09T15:52:26.371Z,100722.59
2024-05-09T15:57:28.090Z,100720.72
2024-05-09T16:02:29.876Z,100718.88
2024-05-09T16:07:31.505Z,100714.88
2024-05-09T16:12:33.094Z,100719.06
2024-05-09T16:17:34.855Z,100706.78
2024-05-09T16:22:36.806Z,100709.06
2024-05-09T16:27:38.373Z,100702.28
2024-05-09T16:32:41.398Z,100704.38
2024-05-09T16:37:43.019Z,100698.94
2024-05-09T16:42:45.804Z,100697.59
2024-05-09T16:47:47.673Z,100700.59
2024-05-09T16:52:49.281Z,100703.22
2024-05-09T16:57:51.010Z,100692.41
2024-05-09T17:02:54.611Z,100703.34
2024-05-09T17:07:56.222Z,100697.19
2024-05-09T17:12:57.782Z,100696.53
2024-05-09T17:18:00.767Z,100695.13
2024-05-09T17:23:02.515Z,100694.09
2024-05-09T17:28:06.388Z,100701.50
2024-05-09T17:33:09.798Z,100694.75
2024-05-09T17:38:12.414Z,100689.22
2024-05-09T17:43:13.997Z,100696.50
2024-05-09T17:48:15.713Z,100696.22
2024-05-09T17:53:17.350Z,100693.03
2024-05-09T17:58:18.972Z,100690.81
2024-05-09T18:03:22.611Z,100692.56
2024-05-09T18:08:24.226Z,100692.19
2024-05-09T18:13:26.636Z,100691.59
2024-05-09T18:18:28.388Z,100683.53
2024-05-09T18:23:31.013Z,100692.84
2024-05-09T18:28:32.647Z,100686.47
2024-05-09T18:33:34.425Z,100688.47
2024-05-09T18:38:36.197Z,100689.78
2024-05-09T18:43:44.674Z,100697.28
2024-05-09T18:48:47.256Z,100697.34
2024-05-09T18:53:48.913Z,100715.72
2024-05-09T18:58:50.458Z,100706.25
2024-05-09T19:03:53.013Z,100716.03
2024-05-09T19:08:54.674Z,100715.19
2024-05-09T19:13:58.523Z,100712.69
2024-05-09T19:19:01.181Z,100711.31
2024-05-09T19:24:02.880Z,100717.47
2024-05-09T19:29:04.442Z,100714.56
2024-05-09T19:34:06.057Z,100724.06
2024-05-09T19:39:07.647Z,100726.94
2024-05-09T19:44:09.248Z,100729.09
2024-05-09T19:49:11.087Z,100730.06
2024-05-09T19:54:12.742Z,100723.47
2024-05-09T19:59:14.300Z,100728.47
2024-05-09T20:04:16.027Z,100728.72
2024-05-09T20:09:17.738Z,100737.38
2024-05-09T20:14:19.308Z,100740.16
2024-05-09T20:19:21.085Z,100735.09
2024-05-09T20:24:22.684Z,100734.63
2024-05-09T20:29:24.231Z,100737.59
2024-05-09T20:34:25.824Z,100741.59
2024-05-09T20:39:27.485Z,100744.72
2024-05-09T20:44:29.022Z,100738.44
2024-05-09T20:49:30.733Z,100744.72
2024-05-09T20:54:32.516Z,100744.53
2024-05-09T20:59:34.123Z,100745.31
2024-05-09T21:04:35.980Z,100751.44
2024-05-09T21:09:37.720Z,100755.06
2024-05-09T21:14:39.299Z,100757.19
2024-05-09T21:19:40.872Z,100759.25
2024-05-09T21:24:42.684Z,100760.84
2024-05-09T21:29:44.316Z,100758.19
2024-05-09T21:34:46.057Z,100759.63
2024-05-09T21:39:47.881Z,100759.84
2024-05-09T21:44:49.441Z,100757.94
2024-05-09T21:49:50.998Z,100750.13
2024-05-09T21:54:52.721Z,100759.00
2024-05-09T21:59:54.298Z,100760.28
2024-05-09T22:04:55.997Z,100753.63
2024-05-09T22:09:57.716Z,100755.28
2024-05-09T22:14:59.268Z,100749.75
2024-05-09T22:20:00.835Z,100761.38
2024-05-09T22:25:02.505Z,100754.63
2024-05-09T22:30:07.173Z,100759.31
2024-05-09T22:35:13.245Z,100762.66
2024-05-09T22:40:23.879Z,100750.66
2024-05-09T22:45:30.710Z,100753.00
2024-05-09T22:50:33.447Z,100752.78
2024-05-09T22:55:35.376Z,100752.41
2024-05-09T23:00:37.170Z,100748.47
2024-05-09T23:05:38.936Z,100751.47
2024-05-09T23:10:40.567Z,100746.03
2024-05-09T23:15:42.271Z,100744.88
2024-05-09T23:20:43.875Z,100745.16
2024-05-09T23:25:45.486Z,100741.59
2024-05-09T23:30:47.097Z,100735.78
2024-05-09T23:35:49.561Z,100735.41
2024-05-09T23:40:51.336Z,100730.47
2024-05-09T23:45:53.149Z,100737.69
2024-05-09T23:50:54.742Z,100733.41
2024-05-09T23:55:56.290Z,100727.13
